Time,TemperatureF,DewpointF,PressureIn,WindDirection,WindDirectionDegrees,WindSpeedMPH,WindSpeedGustMPH,Humidity,HourlyPrecipIn,Conditions,Clouds,dailyrainin,SolarRadiationWatts/m^2,SoftwareType,DateUTC
2017-05-23 00:01:00,70.1,68.9,29.96,East,92,1.0,6.0,96,0.01,,,0.00,0.00,VWS V14.01,2017-05-23 04:01:00,
2017-05-23 00:06:00,70.1,68.9,29.95,ENE,74,3.0,3.0,96,0.01,,,0.00,0.00,VWS V14.01,2017-05-23 04:06:00,
2017-05-23 00:07:00,70.1,68.9,29.95,East,92,0.0,5.0,96,0.01,,,0.00,0.00,VWS V14.01,2017-05-23 04:07:00,
2017-05-23 00:12:00,70.2,69.0,29.95,East,96,6.0,8.0,96,0.00,,,0.00,0.00,VWS V14.01,2017-05-23 04:12:00,
2017-05-23 00:17:00,70.2,69.0,29.95,East,92,2.0,9.0,96,0.00,,,0.00,0.00,VWS V14.01,2017-05-23 04:17:00,
2017-05-23 00:22:00,70.3,69.1,29.94,East,84,2.0,5.0,96,0.00,,,0.00,0.00,VWS V14.01,2017-05-23 04:22:00,
2017-05-23 00:27:00,70.3,69.1,29.94,East,80,0.0,7.0,96,0.00,,,0.00,0.00,VWS V14.01,2017-05-23 04:27:00,
2017-05-23 00:32:00,70.4,69.2,29.94,East,101,0.0,5.0,96,0.00,,,0.00,0.00,VWS V14.01,2017-05-23 04:32:00,
2017-05-23 00:37:00,70.3,69.1,29.94,ESE,106,5.0,7.0,96,0.00,,,0.00,0.00,VWS V14.01,2017-05-23 04:37:00,
2017-05-23 00:42:00,70.3,69.1,29.94,East,101,3.0,7.0,96,0.00,,,0.00,0.00,VWS V14.01,2017-05-23 04:42:00,
2017-05-23 00:47:00,70.4,69.2,29.93,ESE,107,5.0,9.0,96,0.00,,,0.00,0.00,VWS V14.01,2017-05-23 04:47:00,
2017-05-23 00:52:00,70.4,68.9,29.93,ESE,108,4.0,9.0,95,0.00,,,0.00,0.00,VWS V14.01,2017-05-23 04:52:00,
2017-05-23 00:57:00,70.4,68.9,29.93,ENE,71,0.0,8.0,95,0.00,,,0.00,0.00,VWS V14.01,2017-05-23 04:57:00,
2017-05-23 01:02:00,70.7,69.2,29.93,ENE,76,3.0,8.0,95,0.00,,,0.00,0.00,VWS V14.01,2017-05-23 05:02:00,
2017-05-23 01:07:00,70.8,69.3,29.93,East,93,0.0,5.0,95,0.00,,,0.00,0.00,VWS V14.01,2017-05-23 05:07:00,
2017-05-23 01:12:00,70.9,69.1,29.92,East,101,6.0,10.0,94,0.00,,,0.00,0.00,VWS V14.01,2017-05-23 05:12:00,
2017-05-23 01:17:00,71.1,69.3,29.92,East,90,6.0,8.0,94,0.00,,,0.00,0.00,VWS V14.01,2017-05-23 05:17:00,
2017-05-23 01:22:00,71.2,69.1,29.92,ENE,69,4.0,8.0,93,0.00,,,0.00,0.00,VWS V14.01,2017-05-23 05:22:00,
2017-05-23 01:27:00,71.2,69.1,29.91,East,89,7.0,7.0,93,0.00,,,0.00,0.00,VWS V14.01,2017-05-23 05:27:00,
2017-05-23 01:32:00,71.4,69.0,29.91,ENE,76,2.0,8.0,92,0.00,,,0.00,0.00,VWS V14.01,2017-05-23 05:32:00,
2017-05-23 01:37:00,71.7,69.3,29.91,East,82,11.0,11.0,92,0.00,,,0.00,0.00,VWS V14.01,2017-05-23 05:37:00,
2017-05-23 01:42:00,71.9,69.1,29.90,ESE,107,9.0,14.0,91,0.00,,,0.00,0.00,VWS V14.01,2017-05-23 05:42:00,
2017-05-23 01:47:00,72.1,69.3,29.89,ESE,117,5.0,10.0,91,0.00,,,0.00,0.00,VWS V14.01,2017-05-23 05:47:00,
2017-05-23 01:52:00,72.1,69.3,29.89,NE,51,6.0,9.0,91,0.00,,,0.00,0.00,VWS V14.01,2017-05-23 05:52:00,
2017-05-23 01:57:00,72.1,69.3,29.89,ENE,58,7.0,9.0,91,0.00,,,0.00,0.00,VWS V14.01,2017-05-23 05:57:00,
2017-05-23 02:02:00,72.2,69.1,29.89,ENE,78,7.0,9.0,90,0.01,,,0.01,0.00,VWS V14.01,2017-05-23 06:02:00,
2017-05-23 02:03:00,72.2,69.1,29.89,ESE,117,5.0,9.0,90,0.01,,,0.01,0.00,VWS V14.01,2017-05-23 06:03:00,
2017-05-23 02:08:00,72.2,69.4,29.89,East,88,3.0,12.0,91,0.01,,,0.01,0.00,VWS V14.01,2017-05-23 06:08:00,
2017-05-23 02:13:00,72.2,69.1,29.89,East,90,0.0,6.0,90,0.01,,,0.01,0.00,VWS V14.01,2017-05-23 06:13:00,
2017-05-23 02:18:00,72.2,69.4,29.89,East,87,9.0,9.0,91,0.01,,,0.01,0.00,VWS V14.01,2017-05-23 06:18:00,
2017-05-23 02:23:00,71.9,69.1,29.88,East,84,0.0,8.0,91,0.01,,,0.01,0.00,VWS V14.01,2017-05-23 06:23:00,
2017-05-23 02:29:00,71.9,69.1,29.88,East,88,5.0,7.0,91,0.01,,,0.01,0.00,VWS V14.01,2017-05-23 06:29:00,
2017-05-23 02:34:00,71.9,69.1,29.88,NE,50,5.0,6.0,91,0.01,,,0.01,0.00,VWS V14.01,2017-05-23 06:34:00,
2017-05-23 02:39:00,71.9,69.1,29.87,East,80,5.0,5.0,91,0.01,,,0.01,0.00,VWS V14.01,2017-05-23 06:39:00,
2017-05-23 02:44:00,71.9,69.1,29.87,East,84,6.0,6.0,91,0.01,,,0.01,0.00,VWS V14.01,2017-05-23 06:44:00,
2017-05-23 02:49:00,72.0,69.2,29.87,ENE,77,0.0,0.0,91,0.01,,,0.01,0.00,VWS V14.01,2017-05-23 06:49:00,
2017-05-23 02:54:00,72.0,69.6,29.87,ENE,78,0.0,2.0,92,0.01,,,0.01,0.00,VWS V14.01,2017-05-23 06:54:00,
2017-05-23 02:59:00,71.9,69.4,29.87,East,94,0.0,1.0,92,0.00,,,0.01,0.00,VWS V14.01,2017-05-23 06:59:00,
2017-05-23 03:04:00,72.0,69.6,29.87,East,82,0.0,0.0,92,0.00,,,0.01,0.00,VWS V14.01,2017-05-23 07:04:00,
2017-05-23 03:05:00,72.0,69.6,29.87,ESE,105,0.0,0.0,92,0.00,,,0.01,0.00,VWS V14.01,2017-05-23 07:05:00,
2017-05-23 03:10:00,72.0,69.9,29.87,ENE,60,1.0,3.0,93,0.01,,,0.02,0.00,VWS V14.01,2017-05-23 07:10:00,
2017-05-23 03:15:00,72.1,70.3,29.87,North,355,0.0,0.0,94,0.02,,,0.03,0.00,VWS V14.01,2017-05-23 07:15:00,
2017-05-23 03:20:00,72.2,70.4,29.87,ENE,72,0.0,5.0,94,0.10,,,0.11,0.00,VWS V14.01,2017-05-23 07:20:00,
2017-05-23 03:25:00,72.2,70.4,29.87,SE,134,1.0,8.0,94,0.20,,,0.21,0.00,VWS V14.01,2017-05-23 07:25:00,
2017-05-23 03:30:00,72.1,70.3,29.87,South,186,4.0,4.0,94,0.22,,,0.23,0.00,VWS V14.01,2017-05-23 07:30:00,
2017-05-23 03:35:00,72.0,70.5,29.86,SSW,198,0.0,8.0,95,0.24,,,0.25,0.00,VWS V14.01,2017-05-23 07:35:00,
2017-05-23 03:40:00,72.1,70.6,29.86,South,175,2.0,7.0,95,0.24,,,0.25,0.00,VWS V14.01,2017-05-23 07:40:00,
2017-05-23 03:45:00,72.1,70.6,29.87,WSW,237,6.0,6.0,95,0.24,,,0.25,0.00,VWS V14.01,2017-05-23 07:45:00,
2017-05-23 03:50:00,72.2,70.7,29.87,West,263,0.0,4.0,95,0.25,,,0.26,0.00,VWS V14.01,2017-05-23 07:50:00,
2017-05-23 03:55:00,72.3,71.1,29.87,South,178,7.0,7.0,96,0.25,,,0.26,0.00,VWS V14.01,2017-05-23 07:55:00,
2017-05-23 04:00:00,72.1,70.6,29.86,SW,215,2.0,5.0,95,0.25,,,0.26,0.00,VWS V14.01,2017-05-23 08:00:00,
2017-05-23 04:05:00,72.0,70.5,29.86,WSW,246,4.0,6.0,95,0.25,,,0.26,0.00,VWS V14.01,2017-05-23 08:05:00,
2017-05-23 04:10:00,71.9,70.4,29.86,SSW,213,0.0,0.0,95,0.24,,,0.26,0.00,VWS V14.01,2017-05-23 08:10:00,
2017-05-23 04:15:00,71.9,70.7,29.86,SW,217,0.0,3.0,96,0.24,,,0.27,0.00,VWS V14.01,2017-05-23 08:15:00,
2017-05-23 04:20:00,72.0,70.8,29.85,WSW,238,0.0,0.0,96,0.18,,,0.27,0.00,VWS V14.01,2017-05-23 08:20:00,
2017-05-23 04:25:00,71.9,70.7,29.85,SE,138,0.0,0.0,96,0.06,,,0.27,0.00,VWS V14.01,2017-05-23 08:25:00,
2017-05-23 04:30:00,71.9,70.7,29.85,SSW,212,0.0,5.0,96,0.04,,,0.27,0.00,VWS V14.01,2017-05-23 08:30:00,
2017-05-23 04:35:00,71.9,70.7,29.85,WSW,240,3.0,3.0,96,0.02,,,0.27,0.00,VWS V14.01,2017-05-23 08:35:00,
2017-05-23 04:40:00,71.8,70.6,29.85,South,186,0.0,1.0,96,0.02,,,0.27,0.00,VWS V14.01,2017-05-23 08:40:00,
2017-05-23 04:45:00,71.8,70.6,29.84,SSW,196,0.0,5.0,96,0.02,,,0.27,0.00,VWS V14.01,2017-05-23 08:45:00,
2017-05-23 04:50:00,71.8,70.6,29.84,SSW,198,0.0,0.0,96,0.01,,,0.27,0.00,VWS V14.01,2017-05-23 08:50:00,
2017-05-23 04:55:00,71.8,70.6,29.84,SSW,211,3.0,4.0,96,0.02,,,0.28,0.00,VWS V14.01,2017-05-23 08:55:00,
2017-05-23 05:00:00,71.6,70.4,29.84,SW,225,4.0,10.0,96,0.02,,,0.28,0.00,VWS V14.01,2017-05-23 09:00:00,
2017-05-23 05:05:00,71.5,70.3,29.84,SW,218,4.0,4.0,96,0.02,,,0.28,0.00,VWS V14.01,2017-05-23 09:05:00,
2017-05-23 05:10:00,71.5,70.3,29.84,WSW,241,4.0,4.0,96,0.02,,,0.28,0.00,VWS V14.01,2017-05-23 09:10:00,
2017-05-23 05:15:00,71.5,70.3,29.84,SSW,204,0.0,4.0,96,0.01,,,0.28,0.00,VWS V14.01,2017-05-23 09:15:00,
2017-05-23 05:20:00,71.6,70.4,29.84,SW,217,0.0,0.0,96,0.01,,,0.28,0.00,VWS V14.01,2017-05-23 09:20:00,
2017-05-23 05:25:00,71.7,70.5,29.85,SW,217,0.0,5.0,96,0.01,,,0.28,0.00,VWS V14.01,2017-05-23 09:25:00,
2017-05-23 05:30:00,71.8,70.6,29.84,SSE,163,0.0,0.0,96,0.01,,,0.28,0.00,VWS V14.01,2017-05-23 09:30:00,
2017-05-23 05:35:00,71.9,70.7,29.84,SSE,150,2.0,2.0,96,0.01,,,0.28,0.00,VWS V14.01,2017-05-23 09:35:00,
2017-05-23 05:40:00,71.9,70.7,29.84,SSW,192,0.0,0.0,96,0.01,,,0.28,0.00,VWS V14.01,2017-05-23 09:40:00,
2017-05-23 05:45:00,72.0,70.8,29.84,SW,223,0.0,4.0,96,0.01,,,0.28,0.00,VWS V14.01,2017-05-23 09:45:00,
2017-05-23 05:50:00,72.1,70.9,29.84,SW,225,2.0,4.0,96,0.01,,,0.28,0.00,VWS V14.01,2017-05-23 09:50:00,
2017-05-23 05:55:00,72.1,70.9,29.84,SW,226,2.0,6.0,96,0.00,,,0.28,0.00,VWS V14.01,2017-05-23 09:55:00,
2017-05-23 06:00:00,72.2,71.0,29.84,SSW,202,7.0,10.0,96,0.00,,,0.28,0.00,VWS V14.01,2017-05-23 10:00:00,
2017-05-23 06:05:00,72.1,70.9,29.84,SW,232,5.0,5.0,96,0.00,,,0.28,0.00,VWS V14.01,2017-05-23 10:05:00,
2017-05-23 06:10:00,72.1,70.9,29.84,SW,232,5.0,5.0,96,0.00,,,0.28,0.00,VWS V14.01,2017-05-23 10:10:00,
2017-05-23 06:15:00,72.1,70.9,29.83,SW,232,5.0,5.0,96,0.00,,,0.28,0.00,VWS V14.01,2017-05-23 10:15:00,
2017-05-23 06:20:00,72.1,70.9,29.83,SW,232,5.0,5.0,96,0.00,,,0.28,0.00,VWS V14.01,2017-05-23 10:20:00,
2017-05-23 06:25:00,72.1,70.9,29.83,SW,232,5.0,5.0,96,0.00,,,0.28,0.00,VWS V14.01,2017-05-23 10:25:00,
2017-05-23 06:30:00,72.1,70.9,29.83,SW,232,5.0,5.0,96,0.00,,,0.28,0.00,VWS V14.01,2017-05-23 10:30:00,
2017-05-23 06:31:00,72.1,70.9,29.83,SW,232,5.0,5.0,96,0.00,,,0.28,0.00,VWS V14.01,2017-05-23 10:31:00,
2017-05-23 06:36:00,72.1,70.9,29.82,SW,232,5.0,5.0,96,0.00,,,0.28,0.00,VWS V14.01,2017-05-23 10:36:00,
2017-05-23 06:41:00,72.1,70.9,29.82,SW,232,5.0,5.0,96,0.00,,,0.28,0.00,VWS V14.01,2017-05-23 10:41:00,
2017-05-23 06:46:00,72.1,70.9,29.82,SW,232,5.0,5.0,96,0.00,,,0.28,0.00,VWS V14.01,2017-05-23 10:46:00,
2017-05-23 06:51:00,72.1,70.9,29.83,SW,232,5.0,5.0,96,0.00,,,0.28,0.00,VWS V14.01,2017-05-23 10:51:00,
2017-05-23 06:56:00,72.1,70.9,29.82,SW,232,5.0,5.0,96,0.00,,,0.28,0.00,VWS V14.01,2017-05-23 10:56:00,
2017-05-23 07:01:00,72.1,70.9,29.83,SW,232,5.0,5.0,96,0.00,,,0.28,0.00,VWS V14.01,2017-05-23 11:01:00,
2017-05-23 07:06:00,72.1,70.9,29.83,SW,232,5.0,5.0,96,0.00,,,0.28,0.00,VWS V14.01,2017-05-23 11:06:00,
2017-05-23 07:11:00,72.1,70.9,29.83,SW,232,5.0,5.0,96,0.00,,,0.28,0.00,VWS V14.01,2017-05-23 11:11:00,
2017-05-23 07:16:00,72.1,70.9,29.83,SW,232,5.0,5.0,96,0.00,,,0.28,0.00,VWS V14.01,2017-05-23 11:16:00,
2017-05-23 07:21:00,72.1,70.9,29.83,SW,232,5.0,5.0,96,0.00,,,0.28,0.00,VWS V14.01,2017-05-23 11:21:00,
2017-05-23 07:26:00,72.1,70.9,29.83,SW,232,5.0,5.0,96,0.00,,,0.28,0.00,VWS V14.01,2017-05-23 11:26:00,
2017-05-23 07:31:00,72.1,70.9,29.83,SW,232,5.0,5.0,96,0.00,,,0.28,0.00,VWS V14.01,2017-05-23 11:31:00,
2017-05-23 07:36:00,72.1,70.9,29.83,SW,232,5.0,5.0,96,0.00,,,0.28,0.00,VWS V14.01,2017-05-23 11:36:00,
2017-05-23 07:41:00,72.1,70.9,29.83,SW,232,5.0,5.0,96,0.00,,,0.28,0.00,VWS V14.01,2017-05-23 11:41:00,
2017-05-23 07:46:00,72.1,70.9,29.83,SW,232,5.0,5.0,96,0.00,,,0.28,0.00,VWS V14.01,2017-05-23 11:46:00,
2017-05-23 07:51:00,72.1,70.9,29.83,SW,232,5.0,5.0,96,0.00,,,0.28,0.00,VWS V14.01,2017-05-23 11:51:00,
2017-05-23 07:56:00,72.1,70.9,29.83,SW,232,5.0,5.0,96,0.00,,,0.28,0.00,VWS V14.01,2017-05-23 11:56:00,
2017-05-23 08:01:00,72.1,70.9,29.83,SW,232,5.0,5.0,96,0.00,,,0.28,0.00,VWS V14.01,2017-05-23 12:01:00,
2017-05-23 08:06:00,72.1,70.9,29.83,SW,232,5.0,5.0,96,0.00,,,0.28,0.00,VWS V14.01,2017-05-23 12:06:00,
2017-05-23 08:11:00,72.1,70.9,29.83,SW,232,5.0,5.0,96,0.00,,,0.28,0.00,VWS V14.01,2017-05-23 12:11:00,
2017-05-23 08:16:00,72.1,70.9,29.83,SW,232,5.0,5.0,96,0.00,,,0.28,0.00,VWS V14.01,2017-05-23 12:16:00,
2017-05-23 08:21:00,72.1,70.9,29.83,SW,232,5.0,5.0,96,0.00,,,0.28,0.00,VWS V14.01,2017-05-23 12:21:00,
2017-05-23 08:26:00,72.1,70.9,29.83,SW,232,5.0,5.0,96,0.00,,,0.28,0.00,VWS V14.01,2017-05-23 12:26:00,
2017-05-23 08:31:00,72.1,70.9,29.83,SW,232,5.0,5.0,96,0.00,,,0.28,0.00,VWS V14.01,2017-05-23 12:31:00,
2017-05-23 08:36:00,72.1,70.9,29.83,SW,232,5.0,5.0,96,0.00,,,0.28,0.00,VWS V14.01,2017-05-23 12:36:00,
2017-05-23 08:41:00,72.1,70.9,29.83,SW,232,5.0,5.0,96,0.00,,,0.28,0.00,VWS V14.01,2017-05-23 12:41:00,
2017-05-23 08:46:00,72.1,70.9,29.83,SW,232,5.0,5.0,96,0.00,,,0.28,0.00,VWS V14.01,2017-05-23 12:46:00,
2017-05-23 08:51:00,72.1,70.9,29.83,SW,232,5.0,5.0,96,0.00,,,0.28,0.00,VWS V14.01,2017-05-23 12:51:00,
2017-05-23 08:56:00,72.1,70.9,29.83,SW,232,5.0,5.0,96,0.00,,,0.28,0.00,VWS V14.01,2017-05-23 12:56:00,
2017-05-23 09:01:00,72.1,70.9,29.82,SW,232,5.0,5.0,96,0.00,,,0.28,0.00,VWS V14.01,2017-05-23 13:01:00,
2017-05-23 09:06:00,72.1,70.9,29.82,SW,232,5.0,5.0,96,0.00,,,0.28,0.00,VWS V14.01,2017-05-23 13:06:00,
2017-05-23 09:11:00,72.1,70.9,29.82,SW,232,5.0,5.0,96,0.00,,,0.28,0.00,VWS V14.01,2017-05-23 13:11:00,
2017-05-23 09:16:00,72.1,70.9,29.82,SW,232,5.0,5.0,96,0.00,,,0.28,0.00,VWS V14.01,2017-05-23 13:16:00,
2017-05-23 09:21:00,72.1,70.9,29.82,SW,232,5.0,5.0,96,0.00,,,0.28,0.00,VWS V14.01,2017-05-23 13:21:00,
2017-05-23 09:26:00,72.1,70.9,29.82,SW,232,5.0,5.0,96,0.00,,,0.28,0.00,VWS V14.01,2017-05-23 13:26:00,
2017-05-23 09:31:00,72.1,70.9,29.82,SW,232,5.0,5.0,96,0.00,,,0.28,0.00,VWS V14.01,2017-05-23 13:31:00,
2017-05-23 09:36:00,72.1,70.9,29.82,SW,232,5.0,5.0,96,0.00,,,0.28,0.00,VWS V14.01,2017-05-23 13:36:00,
2017-05-23 09:41:00,72.1,70.9,29.82,SW,232,5.0,5.0,96,0.00,,,0.28,0.00,VWS V14.01,2017-05-23 13:41:00,
2017-05-23 09:46:00,72.1,70.9,29.82,SW,232,5.0,5.0,96,0.00,,,0.28,0.00,VWS V14.01,2017-05-23 13:46:00,
2017-05-23 09:51:00,72.1,70.9,29.82,SW,232,5.0,5.0,96,0.00,,,0.28,0.00,VWS V14.01,2017-05-23 13:51:00,
2017-05-23 09:57:00,72.1,70.9,29.82,SW,232,5.0,5.0,96,0.00,,,0.28,0.00,VWS V14.01,2017-05-23 13:57:00,
2017-05-23 10:02:00,72.1,70.9,29.82,SW,232,5.0,5.0,96,0.00,,,0.28,0.00,VWS V14.01,2017-05-23 14:02:00,
2017-05-23 10:07:00,72.1,70.9,29.82,SW,232,5.0,5.0,96,0.00,,,0.28,0.00,VWS V14.01,2017-05-23 14:07:00,